Time;durP1;ratioP1;P1;durP2;ratioP2;P2;SDS_P1;SDS_P2;PMS_P1;PMS_P2;Temp;Humidity;BMP_temperature;BMP_pressure;BME280_temperature;BME280_humidity;BME280_pressure;Samples;Min_cycle;Max_cycle;Signal;HPM_P1;HPM_P2
2023/04/28 00:01:23;;;;;;;0.10;0.10;;;4.40;99.90;;;;;;5082937;28;20024;-72
2023/04/28 00:03:48;;;;;;;0.20;0.20;;;4.40;99.90;;;;;;5080767;28;20032;-72
2023/04/28 00:06:14;;;;;;;0.10;0.10;;;4.40;99.90;;;;;;5084657;28;20313;-72
2023/04/28 00:08:40;;;;;;;0.10;0.10;;;4.30;99.90;;;;;;5081091;28;20035;-72
2023/04/28 00:11:10;;;;;;;0.17;0.17;;;4.30;99.90;;;;;;5081745;28;20016;-72
2023/04/28 00:13:36;;;;;;;0.10;0.10;;;4.20;99.90;;;;;;5082646;28;20102;-72
2023/04/28 00:16:02;;;;;;;0.47;0.47;;;4.30;99.90;;;;;;5082764;28;20664;-72
2023/04/28 00:18:28;;;;;;;0.10;0.10;;;4.30;99.90;;;;;;5083175;28;20035;-72
2023/04/28 00:20:54;;;;;;;0.20;0.20;;;4.20;99.90;;;;;;5082262;28;20093;-72
2023/04/28 00:23:20;;;;;;;0.10;0.10;;;4.20;99.90;;;;;;5083025;28;20105;-72
2023/04/28 00:25:53;;;;;;;0.10;0.10;;;4.20;99.90;;;;;;5084117;28;20658;-72
2023/04/28 00:28:20;;;;;;;0.10;0.10;;;4.20;99.90;;;;;;5085897;28;20032;-72
2023/04/28 00:30:46;;;;;;;0.20;0.20;;;4.10;99.90;;;;;;5085314;28;20040;-72
2023/04/28 00:33:12;;;;;;;0.20;0.20;;;4.10;99.90;;;;;;5090676;28;20165;-72
2023/04/28 00:35:39;;;;;;;0.20;0.20;;;4.10;99.90;;;;;;5088465;28;20674;-74
2023/04/28 00:38:05;;;;;;;0.20;0.20;;;4.10;99.90;;;;;;5090737;28;20028;-72
2023/04/28 00:40:38;;;;;;;0.10;0.10;;;4.00;99.90;;;;;;5089077;28;20034;-72
2023/04/28 00:43:04;;;;;;;0.20;0.20;;;4.00;99.90;;;;;;5090257;28;20024;-72
2023/04/28 00:45:30;;;;;;;0.20;0.20;;;4.00;99.90;;;;;;5087602;28;20028;-75
2023/04/28 00:47:57;;;;;;;0.13;0.13;;;4.00;99.90;;;;;;5088457;28;20020;-72
2023/04/28 00:50:26;;;;;;;0.20;0.20;;;3.90;99.90;;;;;;5086660;28;20669;-75
2023/04/28 00:52:53;;;;;;;0.20;0.20;;;3.90;99.90;;;;;;5086743;28;20036;-73
2023/04/28 00:55:20;;;;;;;0.30;0.30;;;3.90;99.90;;;;;;5085989;28;20020;-72
2023/04/28 00:57:47;;;;;;;0.20;0.20;;;3.90;99.90;;;;;;5086796;28;20028;-72
2023/04/28 01:00:15;;;;;;;0.63;0.63;;;3.90;99.90;;;;;;5082856;28;20076;-73
2023/04/28 01:02:40;;;;;;;0.10;0.10;;;3.90;99.90;;;;;;5085441;28;20032;-73
2023/04/28 01:05:10;;;;;;;0.20;0.20;;;3.90;99.90;;;;;;5084889;28;20718;-72
2023/04/28 01:07:36;;;;;;;0.20;0.20;;;3.90;99.90;;;;;;5081452;28;20021;-72
2023/04/28 01:10:02;;;;;;;0.10;0.10;;;5.30;99.90;;;;;;5084659;28;20023;-70
2023/04/28 01:12:29;;;;;;;0.20;0.20;;;3.90;99.90;;;;;;5085298;28;20035;-70
2023/04/28 01:14:55;;;;;;;0.10;0.10;;;3.90;99.90;;;;;;5085017;28;20024;-71
2023/04/28 01:17:21;;;;;;;0.10;0.10;;;3.90;99.90;;;;;;5085741;28;20023;-71
2023/04/28 01:19:46;;;;;;;0.10;0.10;;;3.90;99.90;;;;;;5086399;28;20082;-72
2023/04/28 01:22:15;;;;;;;0.20;0.20;;;3.90;99.90;;;;;;5087702;28;20040;-74
2023/04/28 01:24:41;;;;;;;0.17;0.17;;;3.80;99.90;;;;;;5085070;28;20223;-72
2023/04/28 01:27:07;;;;;;;0.10;0.10;;;3.80;99.90;;;;;;5086701;28;20024;-72
2023/04/28 01:29:32;;;;;;;0.10;0.10;;;3.80;99.90;;;;;;5084085;28;20046;-71
2023/04/28 01:31:58;;;;;;;5.60;5.35;;;3.80;99.90;;;;;;5087391;28;20012;-72
2023/04/28 01:34:25;;;;;;;0.20;0.20;;;3.80;99.90;;;;;;5088060;28;20016;-73
2023/04/28 01:36:51;;;;;;;0.73;0.73;;;3.80;99.90;;;;;;5083135;28;20096;-72
2023/04/28 01:39:16;;;;;;;0.30;0.30;;;3.80;99.90;;;;;;5086172;28;20460;-72
2023/04/28 01:41:42;;;;;;;0.20;0.20;;;3.80;99.90;;;;;;5085549;28;20075;-72
2023/04/28 01:44:08;;;;;;;0.43;0.43;;;3.70;99.90;;;;;;5087174;28;20020;-71
2023/04/28 01:46:34;;;;;;;0.20;0.20;;;3.70;99.90;;;;;;5086100;28;20676;-71
2023/04/28 01:49:00;;;;;;;0.10;0.10;;;3.70;99.90;;;;;;5085295;28;20066;-72
2023/04/28 01:51:26;;;;;;;0.17;0.17;;;3.60;99.90;;;;;;5084854;28;20032;-71
2023/04/28 01:53:52;;;;;;;0.10;0.10;;;3.60;99.90;;;;;;5083888;28;20684;-72
2023/04/28 01:56:17;;;;;;;0.20;0.20;;;3.60;99.90;;;;;;5080850;28;20231;-71
2023/04/28 01:58:43;;;;;;;0.10;0.10;;;3.60;99.90;;;;;;5083261;28;20085;-71
2023/04/28 02:01:09;;;;;;;0.20;0.20;;;3.50;99.90;;;;;;5079913;28;20036;-71
2023/04/28 02:03:34;;;;;;;0.20;0.20;;;3.50;99.90;;;;;;5079698;28;20714;-72
2023/04/28 02:06:00;;;;;;;0.30;0.30;;;3.50;99.90;;;;;;5079049;28;20063;-72
2023/04/28 02:08:26;;;;;;;0.20;0.20;;;3.50;99.90;;;;;;5078728;28;20077;-71
2023/04/28 02:10:52;;;;;;;0.15;0.15;;;3.50;99.90;;;;;;5080914;28;20092;-70
2023/04/28 02:13:17;;;;;;;0.10;0.10;;;3.50;99.90;;;;;;5082760;28;20020;-71
2023/04/28 02:15:43;;;;;;;0.10;0.10;;;3.50;99.90;;;;;;5084573;28;20657;-72
2023/04/28 02:18:10;;;;;;;0.10;0.10;;;3.50;99.90;;;;;;5084403;28;20028;-72
2023/04/28 02:20:35;;;;;;;0.20;0.20;;;3.40;99.90;;;;;;5083742;28;20024;-72
2023/04/28 02:23:01;;;;;;;0.10;0.10;;;3.40;99.90;;;;;;5084766;28;20027;-71
2023/04/28 02:25:27;;;;;;;0.20;0.20;;;3.40;99.90;;;;;;5084697;28;20016;-71
2023/04/28 02:27:53;;;;;;;0.20;0.20;;;3.00;99.90;;;;;;5082407;28;20137;-72
2023/04/28 02:30:19;;;;;;;0.20;0.20;;;3.40;99.90;;;;;;5080956;28;20030;-72
2023/04/28 02:32:45;;;;;;;0.20;0.20;;;3.40;99.90;;;;;;5082299;28;20107;-72
2023/04/28 02:35:10;;;;;;;0.30;0.30;;;3.40;99.90;;;;;;5082307;28;20239;-71
2023/04/28 02:37:36;;;;;;;0.20;0.20;;;3.40;99.90;;;;;;5079466;28;20111;-70
2023/04/28 02:40:02;;;;;;;0.20;0.20;;;3.40;99.90;;;;;;5081730;28;20623;-73
2023/04/28 02:42:28;;;;;;;0.20;0.20;;;3.40;99.90;;;;;;5081252;28;20044;-71
2023/04/28 02:44:53;;;;;;;1.58;1.55;;;3.40;99.90;;;;;;5080762;28;20028;-72
2023/04/28 02:47:20;;;;;;;0.10;0.10;;;3.40;99.90;;;;;;5082449;28;20020;-72
2023/04/28 02:49:45;;;;;;;0.20;0.20;;;3.40;99.90;;;;;;5082406;28;20104;-72
2023/04/28 02:52:11;;;;;;;0.20;0.20;;;3.40;99.90;;;;;;5084625;28;20806;-76
2023/04/28 02:54:37;;;;;;;0.10;0.10;;;3.30;99.90;;;;;;5087977;28;20177;-72
2023/04/28 02:57:06;;;;;;;0.20;0.20;;;3.30;99.90;;;;;;5083803;28;20024;-72
2023/04/28 02:59:32;;;;;;;0.10;0.10;;;3.20;99.90;;;;;;5084542;28;20020;-72
2023/04/28 03:01:57;;;;;;;0.10;0.10;;;3.20;99.90;;;;;;5083268;28;20032;-74
2023/04/28 03:04:23;;;;;;;0.10;0.10;;;3.20;99.90;;;;;;5082979;28;20023;-72
2023/04/28 03:06:49;;;;;;;0.10;0.10;;;3.20;99.90;;;;;;5085409;28;20657;-72
2023/04/28 03:09:15;;;;;;;0.10;0.10;;;3.20;99.90;;;;;;5083627;28;20436;-75
2023/04/28 03:11:41;;;;;;;0.10;0.10;;;3.10;99.90;;;;;;5083275;28;20077;-71
2023/04/28 03:14:07;;;;;;;0.10;0.10;;;3.00;99.90;;;;;;5082094;28;20033;-72
2023/04/28 03:16:33;;;;;;;0.10;0.10;;;3.00;99.90;;;;;;5086730;28;20421;-73
2023/04/28 03:18:59;;;;;;;1.92;1.77;;;3.00;99.90;;;;;;5092145;28;20077;-73
2023/04/28 03:21:27;;;;;;;2.60;2.50;;;3.00;99.90;;;;;;5088218;28;20273;-71
2023/04/28 03:23:53;;;;;;;0.10;0.10;;;3.00;99.90;;;;;;5083816;28;20035;-70
2023/04/28 03:26:19;;;;;;;0.20;0.20;;;3.00;99.90;;;;;;5084897;28;20008;-71
2023/04/28 03:28:45;;;;;;;0.10;0.10;;;3.00;99.90;;;;;;5084600;28;20100;-70
2023/04/28 03:31:11;;;;;;;0.17;0.17;;;3.00;99.90;;;;;;5083030;28;20070;-72
2023/04/28 03:33:36;;;;;;;0.10;0.10;;;3.00;99.90;;;;;;5081847;28;20133;-72
2023/04/28 03:36:02;;;;;;;0.13;0.13;;;3.00;99.90;;;;;;5081607;28;20028;-71
2023/04/28 03:38:28;;;;;;;0.30;0.30;;;3.00;99.90;;;;;;5083772;28;20342;-72
2023/04/28 03:40:54;;;;;;;0.20;0.20;;;3.00;99.90;;;;;;5081854;28;20036;-72
2023/04/28 03:43:19;;;;;;;0.10;0.10;;;3.00;99.90;;;;;;5083602;28;20658;-71
2023/04/28 03:45:46;;;;;;;0.20;0.20;;;3.00;99.90;;;;;;5081917;28;20012;-72
2023/04/28 03:48:12;;;;;;;0.20;0.20;;;2.90;99.90;;;;;;5081508;28;20066;-72
2023/04/28 03:50:39;;;;;;;0.13;0.13;;;3.00;99.90;;;;;;5081530;28;20048;-72
2023/04/28 03:53:05;;;;;;;0.73;0.73;;;3.00;99.90;;;;;;5079930;28;20059;-71
2023/04/28 03:55:31;;;;;;;0.20;0.20;;;3.00;99.90;;;;;;5082384;28;20116;-71
2023/04/28 03:57:57;;;;;;;0.10;0.10;;;3.00;99.90;;;;;;5081655;28;20058;-72
2023/04/28 04:00:22;;;;;;;0.10;0.10;;;3.00;99.90;;;;;;5085263;28;20013;-71
2023/04/28 04:02:48;;;;;;;0.10;0.10;;;3.00;99.90;;;;;;5088436;28;20579;-71
2023/04/28 04:05:14;;;;;;;0.20;0.20;;;3.10;99.90;;;;;;5085480;28;20016;-71
2023/04/28 04:07:40;;;;;;;0.10;0.10;;;3.10;99.90;;;;;;5082414;28;20572;-72
2023/04/28 04:10:06;;;;;;;0.10;0.10;;;3.10;99.90;;;;;;5083262;28;20042;-71
2023/04/28 04:12:32;;;;;;;0.10;0.10;;;3.20;99.90;;;;;;5083693;28;20332;-72
2023/04/28 04:14:58;;;;;;;0.20;0.20;;;3.20;99.90;;;;;;5084572;28;20028;-71
2023/04/28 04:17:23;;;;;;;40.13;36.00;;;3.20;99.90;;;;;;5085872;28;20054;-71
2023/04/28 04:19:51;;;;;;;0.20;0.20;;;3.30;99.90;;;;;;5086235;28;20055;-71
2023/04/28 04:22:16;;;;;;;0.10;0.10;;;3.20;99.90;;;;;;5089952;28;20101;-71
2023/04/28 04:24:43;;;;;;;0.15;0.15;;;3.20;99.90;;;;;;5089773;28;20020;-71
2023/04/28 04:27:09;;;;;;;0.10;0.10;;;3.20;99.90;;;;;;5087499;28;20026;-71
2023/04/28 04:29:35;;;;;;;0.22;0.22;;;3.10;99.90;;;;;;5089438;28;20032;-72
2023/04/28 04:32:01;;;;;;;0.10;0.10;;;3.20;99.90;;;;;;5091821;28;20063;-73
2023/04/28 04:34:27;;;;;;;0.10;0.10;;;3.20;99.90;;;;;;5087666;28;20638;-71
2023/04/28 04:36:52;;;;;;;0.10;0.10;;;3.20;99.90;;;;;;5088212;28;20016;-71
2023/04/28 04:39:18;;;;;;;0.10;0.10;;;3.20;99.90;;;;;;5087872;28;20107;-72
2023/04/28 04:41:44;;;;;;;0.20;0.20;;;3.20;99.90;;;;;;5089272;28;20032;-72
2023/04/28 04:44:10;;;;;;;0.10;0.10;;;3.30;99.90;;;;;;5092719;28;20083;-72
2023/04/28 04:46:36;;;;;;;0.20;0.20;;;3.30;99.90;;;;;;5086925;28;20016;-71
2023/04/28 04:49:01;;;;;;;2.22;2.13;;;4.20;99.90;;;;;;5086830;28;20055;-72
2023/04/28 04:51:27;;;;;;;0.82;0.82;;;3.60;99.90;;;;;;5084624;28;20020;-71
2023/04/28 04:53:53;;;;;;;0.10;0.10;;;3.60;99.90;;;;;;5084514;28;20037;-71
2023/04/28 04:56:19;;;;;;;3.50;3.35;;;3.70;99.90;;;;;;5083122;28;20012;-72
2023/04/28 04:58:45;;;;;;;0.10;0.10;;;3.80;99.90;;;;;;5083410;28;20016;-72
2023/04/28 05:01:11;;;;;;;0.10;0.10;;;3.80;99.90;;;;;;5082997;28;20661;-71
2023/04/28 05:03:37;;;;;;;0.10;0.10;;;3.80;99.90;;;;;;5085409;28;20208;-71
2023/04/28 05:06:03;;;;;;;1.20;1.20;;;3.80;99.90;;;;;;5088438;28;20019;-72
2023/04/28 05:08:28;;;;;;;0.10;0.10;;;3.90;99.90;;;;;;5086964;28;20018;-72
2023/04/28 05:10:54;;;;;;;0.10;0.10;;;4.10;99.90;;;;;;5082909;28;20020;-71
2023/04/28 05:13:20;;;;;;;0.10;0.10;;;4.40;99.90;;;;;;5081816;28;20024;-71
2023/04/28 05:15:46;;;;;;;0.15;0.15;;;4.20;99.90;;;;;;5094479;28;20020;-72
2023/04/28 05:18:12;;;;;;;0.10;0.10;;;4.20;99.90;;;;;;5083055;28;20059;-71
2023/04/28 05:20:38;;;;;;;0.10;0.10;;;4.30;99.90;;;;;;5084899;28;20020;-71
2023/04/28 05:23:05;;;;;;;0.43;0.43;;;4.40;99.90;;;;;;5082469;28;20391;-72
2023/04/28 05:25:31;;;;;;;0.10;0.10;;;4.40;99.90;;;;;;5082305;28;20556;-72
2023/04/28 05:27:57;;;;;;;0.10;0.10;;;4.50;99.90;;;;;;5082545;28;20020;-71
2023/04/28 05:30:22;;;;;;;0.10;0.10;;;4.70;99.90;;;;;;5081762;28;20417;-72
2023/04/28 05:32:48;;;;;;;0.10;0.10;;;4.80;99.90;;;;;;5080926;28;20031;-73
2023/04/28 05:35:14;;;;;;;0.10;0.10;;;5.00;99.90;;;;;;5082222;28;20043;-72
2023/04/28 05:37:42;;;;;;;0.10;0.10;;;5.10;99.90;;;;;;5083166;28;20696;-72
2023/04/28 05:40:09;;;;;;;0.00;0.00;;;5.20;99.90;;;;;;5084734;28;20850;-71
2023/04/28 05:42:34;;;;;;;0.10;0.10;;;5.30;99.90;;;;;;5085254;28;20119;-71
2023/04/28 05:45:01;;;;;;;0.10;0.10;;;5.50;99.90;;;;;;5081163;28;20099;-70
2023/04/28 05:47:28;;;;;;;0.10;0.10;;;5.70;99.90;;;;;;5080043;28;20678;-71
2023/04/28 05:49:54;;;;;;;0.10;0.10;;;5.90;99.90;;;;;;5078761;28;20658;-71
2023/04/28 05:52:20;;;;;;;0.45;0.45;;;6.00;99.90;;;;;;5078556;28;20027;-72
2023/04/28 05:54:45;;;;;;;0.10;0.10;;;6.20;99.90;;;;;;5076771;28;20043;-71
2023/04/28 05:57:11;;;;;;;0.00;0.00;;;6.30;99.90;;;;;;5078185;28;20031;-71
2023/04/28 05:59:37;;;;;;;0.10;0.10;;;6.40;99.90;;;;;;5081009;28;20574;-72
2023/04/28 06:02:03;;;;;;;0.10;0.10;;;6.50;99.90;;;;;;5096234;28;20031;-72
2023/04/28 06:04:30;;;;;;;0.00;0.00;;;6.70;99.90;;;;;;5091051;28;20502;-77
2023/04/28 06:06:55;;;;;;;0.00;0.00;;;6.80;99.90;;;;;;5087537;28;20080;-78
2023/04/28 06:09:21;;;;;;;0.03;0.03;;;6.90;99.90;;;;;;5086424;28;20115;-73
2023/04/28 06:11:47;;;;;;;0.00;0.00;;;6.90;99.90;;;;;;5090352;28;20050;-78
2023/04/28 06:14:12;;;;;;;0.00;0.00;;;6.90;99.90;;;;;;5091749;28;20754;-76
2023/04/28 06:16:38;;;;;;;0.00;0.00;;;7.00;99.90;;;;;;5095494;28;20020;-75
2023/04/28 06:19:04;;;;;;;0.03;0.03;;;7.10;99.90;;;;;;5099417;28;20046;-73
2023/04/28 06:21:31;;;;;;;0.00;0.00;;;7.10;99.90;;;;;;5098457;28;20051;-72
2023/04/28 06:23:57;;;;;;;0.00;0.00;;;7.30;99.90;;;;;;5098426;28;20044;-73
2023/04/28 06:26:23;;;;;;;0.05;0.05;;;7.40;99.90;;;;;;5097932;28;20093;-72
2023/04/28 06:28:50;;;;;;;0.00;0.00;;;7.40;99.90;;;;;;5095205;28;20064;-72
2023/04/28 06:31:15;;;;;;;0.10;0.10;;;7.50;99.90;;;;;;5089388;28;20120;-74
2023/04/28 06:33:41;;;;;;;0.10;0.10;;;7.60;99.90;;;;;;5085421;28;20095;-75
2023/04/28 06:36:07;;;;;;;0.00;0.00;;;7.70;99.90;;;;;;5083625;28;20185;-73
2023/04/28 06:38:36;;;;;;;0.10;0.10;;;7.80;99.90;;;;;;5088607;28;20036;-73
2023/04/28 06:41:02;;;;;;;0.40;0.40;;;7.90;99.90;;;;;;5085340;28;20073;-74
2023/04/28 06:43:27;;;;;;;0.10;0.10;;;8.00;99.90;;;;;;5087268;28;20031;-73
2023/04/28 06:45:53;;;;;;;0.00;0.00;;;8.10;99.90;;;;;;5082723;28;20039;-73
2023/04/28 06:48:19;;;;;;;2.08;1.95;;;8.30;99.90;;;;;;5093540;28;20288;-72
2023/04/28 06:50:45;;;;;;;0.05;0.05;;;8.40;99.90;;;;;;5094285;28;20024;-72
2023/04/28 06:53:11;;;;;;;0.00;0.00;;;8.40;99.90;;;;;;5095561;28;20058;-72
2023/04/28 06:55:36;;;;;;;0.10;0.10;;;8.60;99.90;;;;;;5090974;28;20020;-72
2023/04/28 06:58:02;;;;;;;0.10;0.10;;;8.80;99.90;;;;;;5090001;28;20031;-72
2023/04/28 07:00:28;;;;;;;0.03;0.03;;;9.00;99.90;;;;;;5096596;28;20027;-72
2023/04/28 07:02:54;;;;;;;0.10;0.10;;;9.10;99.90;;;;;;5087652;28;20032;-71
2023/04/28 07:05:19;;;;;;;0.00;0.00;;;9.30;99.90;;;;;;5090826;28;20020;-72
2023/04/28 07:07:46;;;;;;;0.10;0.10;;;9.40;99.90;;;;;;5086554;28;20645;-72
2023/04/28 07:10:14;;;;;;;0.00;0.00;;;9.70;99.90;;;;;;5089426;28;20021;-72
2023/04/28 07:12:40;;;;;;;0.10;0.10;;;9.60;99.90;;;;;;5085443;28;20020;-72
2023/04/28 07:15:06;;;;;;;0.10;0.10;;;9.70;99.90;;;;;;5098788;28;20023;-74
2023/04/28 07:17:32;;;;;;;0.00;0.00;;;9.80;99.90;;;;;;5089806;28;20036;-72
2023/04/28 07:19:58;;;;;;;0.00;0.00;;;10.00;99.90;;;;;;5091302;28;20027;-72
2023/04/28 07:22:24;;;;;;;0.08;0.08;;;10.20;99.90;;;;;;5090400;28;20089;-72
2023/04/28 07:24:49;;;;;;;0.10;0.10;;;10.30;99.90;;;;;;5089979;28;20099;-71
2023/04/28 07:27:16;;;;;;;0.10;0.10;;;10.20;99.90;;;;;;5087788;28;20024;-72
2023/04/28 07:29:41;;;;;;;0.10;0.10;;;10.20;99.90;;;;;;5093908;28;20020;-76
2023/04/28 07:32:09;;;;;;;0.68;0.68;;;10.30;99.90;;;;;;5090945;28;20019;-72
2023/04/28 07:34:36;;;;;;;3.92;3.72;;;10.40;99.90;;;;;;5097782;28;20051;-73
2023/04/28 07:37:02;;;;;;;0.10;0.10;;;10.50;99.90;;;;;;5094816;28;20012;-73
2023/04/28 07:39:31;;;;;;;8.93;8.35;;;10.60;99.90;;;;;;5099174;28;20024;-74
2023/04/28 07:41:57;;;;;;;0.10;0.10;;;10.70;99.90;;;;;;5086813;28;20039;-73
2023/04/28 07:44:23;;;;;;;0.25;0.25;;;10.80;99.90;;;;;;5096568;28;20031;-73
2023/04/28 07:46:49;;;;;;;0.22;0.22;;;11.00;99.90;;;;;;5095387;28;20034;-74
2023/04/28 07:49:15;;;;;;;0.10;0.10;;;11.20;99.90;;;;;;5089769;28;20145;-73
2023/04/28 07:51:40;;;;;;;0.20;0.20;;;11.40;99.90;;;;;;5086603;28;20116;-73
2023/04/28 07:54:09;;;;;;;0.20;0.20;;;11.40;99.50;;;;;;5084205;28;20076;-72
2023/04/28 07:56:35;;;;;;;0.22;0.22;;;11.50;99.90;;;;;;5080912;28;20013;-73
2023/04/28 07:59:01;;;;;;;0.20;0.20;;;11.70;99.90;;;;;;5079916;28;20426;-78
2023/04/28 08:01:26;;;;;;;0.10;0.10;;;11.80;99.50;;;;;;5080545;28;20028;-79
2023/04/28 08:03:52;;;;;;;0.10;0.10;;;11.70;99.50;;;;;;5079992;28;20020;-80
2023/04/28 08:06:19;;;;;;;0.22;0.22;;;11.90;99.00;;;;;;5080659;28;20029;-75
2023/04/28 08:08:45;;;;;;;0.52;0.52;;;12.20;98.80;;;;;;5080977;28;20028;-73
2023/04/28 08:11:10;;;;;;;0.17;0.17;;;12.10;98.30;;;;;;5081137;28;20024;-74
2023/04/28 08:13:36;;;;;;;0.13;0.13;;;12.30;99.90;;;;;;5080840;28;20696;-88
2023/04/28 08:16:02;;;;;;;0.10;0.10;;;12.50;98.10;;;;;;5080415;28;20023;-75
2023/04/28 08:18:28;;;;;;;0.40;0.40;;;12.90;96.20;;;;;;5080327;28;20031;-76
2023/04/28 08:20:54;;;;;;;0.10;0.10;;;13.10;95.20;;;;;;5080748;28;20380;-73
2023/04/28 08:23:20;;;;;;;0.10;0.10;;;12.80;94.70;;;;;;5080428;28;20411;-73
2023/04/28 08:25:46;;;;;;;0.10;0.10;;;13.00;95.20;;;;;;5080413;28;20020;-73
2023/04/28 08:28:12;;;;;;;0.20;0.20;;;13.30;93.60;;;;;;5080340;28;20020;-81
2023/04/28 08:30:38;;;;;;;0.15;0.15;;;13.50;93.00;;;;;;5079598;28;20012;-73
2023/04/28 08:33:04;;;;;;;0.38;0.38;;;13.60;92.50;;;;;;5079848;28;20277;-80
2023/04/28 08:35:30;;;;;;;0.55;0.55;;;13.50;91.50;;;;;;5080285;28;20038;-81
2023/04/28 08:37:57;;;;;;;3.70;3.47;;;13.70;91.20;;;;;;5079905;28;20494;-77
2023/04/28 08:40:24;;;;;;;1.73;1.65;;;13.60;91.80;;;;;;5079641;28;20156;-73
2023/04/28 08:42:50;;;;;;;0.10;0.10;;;13.70;87.90;;;;;;5080109;28;20063;-70
2023/04/28 08:45:16;;;;;;;0.10;0.10;;;13.80;85.50;;;;;;5079618;28;20691;-73
2023/04/28 08:47:46;;;;;;;0.10;0.10;;;13.90;86.20;;;;;;5079428;28;20025;-78
2023/04/28 08:50:13;;;;;;;0.10;0.10;;;14.10;86.00;;;;;;5079552;28;20102;-72
2023/04/28 08:52:41;;;;;;;0.20;0.20;;;14.50;85.50;;;;;;5079074;28;20027;-73
2023/04/28 08:55:10;;;;;;;1.38;1.35;;;14.50;85.20;;;;;;5078155;28;20399;-74
2023/04/28 08:57:43;;;;;;;0.10;0.10;;;14.70;84.10;;;;;;5078197;28;20024;-72
2023/04/28 09:00:09;;;;;;;0.10;0.10;;;14.80;81.00;;;;;;5078968;28;20021;-74
2023/04/28 09:02:41;;;;;;;0.10;0.10;;;14.90;79.70;;;;;;5078604;28;20068;-71
2023/04/28 09:05:08;;;;;;;0.10;0.10;;;15.10;78.90;;;;;;5078680;28;20095;-75
2023/04/28 09:07:35;;;;;;;0.22;0.22;;;15.20;77.10;;;;;;5078672;28;20110;-73
2023/04/28 09:10:22;;;;;;;0.28;0.28;;;15.40;75.80;;;;;;5078401;28;20696;-73
2023/04/28 09:12:51;;;;;;;0.20;0.20;;;15.60;73.90;;;;;;5077960;28;20028;-73
2023/04/28 09:15:36;;;;;;;0.20;0.20;;;15.80;72.50;;;;;;5077325;28;20031;-72
2023/04/28 09:18:06;;;;;;;0.10;0.10;;;16.00;72.50;;;;;;5077943;28;20051;-74
2023/04/28 09:20:33;;;;;;;0.15;0.15;;;16.10;70.90;;;;;;5077853;28;20664;-75
2023/04/28 09:23:14;;;;;;;0.30;0.30;;;16.20;70.80;;;;;;5078215;28;20123;-76
2023/04/28 09:25:40;;;;;;;0.10;0.10;;;16.30;69.80;;;;;;5077850;28;20040;-72
2023/04/28 09:28:22;;;;;;;0.10;0.10;;;16.20;66.70;;;;;;5075960;28;20064;-79
2023/04/28 09:30:48;;;;;;;0.10;0.10;;;16.00;68.10;;;;;;5077686;28;20498;-73
2023/04/28 09:33:14;;;;;;;0.10;0.10;;;16.20;69.70;;;;;;5077600;28;20299;-72
2023/04/28 09:35:42;;;;;;;0.10;0.10;;;16.40;68.20;;;;;;5077853;28;20028;-73
2023/04/28 09:38:08;;;;;;;0.10;0.10;;;16.50;67.10;;;;;;5077599;28;20024;-73
2023/04/28 09:40:59;;;;;;;0.10;0.10;;;16.70;66.10;;;;;;5076066;28;20219;-72
2023/04/28 09:43:32;;;;;;;0.10;0.10;;;16.80;65.60;;;;;;5077595;28;20036;-79
2023/04/28 09:46:04;;;;;;;0.10;0.10;;;17.10;66.40;;;;;;5077471;28;20036;-74
2023/04/28 09:48:35;;;;;;;0.10;0.10;;;17.10;66.00;;;;;;5077133;28;20288;-72
2023/04/28 09:51:03;;;;;;;0.10;0.10;;;17.00;64.80;;;;;;5078021;28;20312;-74
2023/04/28 09:53:29;;;;;;;0.10;0.10;;;17.30;65.20;;;;;;5078077;28;20051;-81
2023/04/28 09:55:57;;;;;;;0.10;0.10;;;17.30;64.70;;;;;;5078259;28;20411;-78
2023/04/28 09:58:25;;;;;;;0.40;0.40;;;17.50;64.20;;;;;;5077927;28;20055;-73
2023/04/28 10:00:58;;;;;;;0.25;0.25;;;17.50;64.80;;;;;;5077486;28;20096;-72
2023/04/28 10:03:26;;;;;;;0.10;0.10;;;17.70;65.10;;;;;;5077550;28;20079;-72
2023/04/28 10:05:53;;;;;;;0.10;0.10;;;18.00;63.50;;;;;;5077049;28;20031;-73
2023/04/28 10:08:20;;;;;;;0.10;0.10;;;17.90;61.60;;;;;;5077057;28;20059;-72
2023/04/28 10:10:54;;;;;;;0.10;0.10;;;17.80;62.00;;;;;;5077071;28;20533;-74
2023/04/28 10:13:21;;;;;;;0.10;0.10;;;18.10;61.80;;;;;;5077028;28;20250;-77
2023/04/28 10:15:47;;;;;;;0.10;0.10;;;18.00;61.20;;;;;;5076716;28;20047;-72
2023/04/28 10:18:14;;;;;;;0.10;0.10;;;18.20;60.90;;;;;;5076766;28;20050;-74
2023/04/28 10:20:46;;;;;;;0.17;0.17;;;19.40;62.00;;;;;;5077028;28;20027;-72
2023/04/28 10:23:34;;;;;;;0.10;0.10;;;18.90;60.90;;;;;;5076656;28;20177;-73
2023/04/28 10:26:09;;;;;;;0.10;0.10;;;18.40;59.80;;;;;;5076327;28;20076;-73
2023/04/28 10:28:35;;;;;;;0.50;0.50;;;18.50;60.20;;;;;;5076872;28;20740;-77
2023/04/28 10:31:21;;;;;;;0.10;0.10;;;18.50;60.10;;;;;;5076612;28;20147;-72
2023/04/28 10:33:48;;;;;;;0.10;0.10;;;18.60;59.90;;;;;;5076735;28;20086;-73
2023/04/28 10:36:47;;;;;;;0.30;0.30;;;19.00;60.10;;;;;;5076810;28;20619;-73
2023/04/28 10:39:13;;;;;;;0.10;0.10;;;19.00;59.90;;;;;;5076623;28;20490;-72
2023/04/28 10:41:38;;;;;;;0.10;0.10;;;19.20;58.80;;;;;;5076683;28;20024;-74
2023/04/28 10:44:29;;;;;;;0.10;0.10;;;19.50;58.30;;;;;;5076691;28;20031;-78
2023/04/28 10:47:05;;;;;;;0.10;0.10;;;19.50;58.80;;;;;;5076365;28;20021;-73
2023/04/28 10:49:56;;;;;;;0.10;0.10;;;19.50;59.80;;;;;;5076537;28;20113;-73
2023/04/28 10:52:41;;;;;;;0.30;0.30;;;19.60;59.80;;;;;;5076546;28;20111;-74
2023/04/28 10:55:25;;;;;;;0.10;0.10;;;19.60;58.40;;;;;;5076597;28;20040;-74
2023/04/28 10:58:19;;;;;;;0.15;0.15;;;19.70;58.80;;;;;;5076819;28;20160;-79
2023/04/28 11:00:48;;;;;;;0.00;0.00;;;19.70;58.30;;;;;;5076641;28;20020;-72
2023/04/28 11:03:41;;;;;;;0.10;0.10;;;20.00;59.40;;;;;;5076532;28;20032;-73
2023/04/28 11:06:27;;;;;;;0.00;0.00;;;20.50;61.10;;;;;;5076637;28;20156;-71
2023/04/28 11:08:59;;;;;;;0.10;0.10;;;20.60;56.80;;;;;;5076696;28;20016;-73
2023/04/28 11:11:25;;;;;;;0.08;0.08;;;20.70;56.70;;;;;;5076500;28;20032;-75
2023/04/28 11:13:53;;;;;;;0.10;0.10;;;20.80;56.20;;;;;;5075079;28;20293;-74
2023/04/28 11:16:24;;;;;;;0.10;0.10;;;20.80;56.40;;;;;;5075043;28;20124;-73
2023/04/28 11:18:54;;;;;;;0.10;0.10;;;21.00;56.00;;;;;;5076115;28;20034;-73
2023/04/28 11:21:22;;;;;;;0.10;0.10;;;20.90;55.70;;;;;;5076695;28;20107;-73
2023/04/28 11:23:48;;;;;;;0.10;0.10;;;21.30;58.50;;;;;;5076259;28;20565;-74
2023/04/28 11:26:14;;;;;;;0.13;0.13;;;21.70;58.20;;;;;;5076282;28;20074;-72
2023/04/28 11:28:57;;;;;;;0.10;0.10;;;22.00;55.50;;;;;;5076579;28;20017;-76
2023/04/28 11:31:24;;;;;;;0.10;0.10;;;22.00;55.00;;;;;;5074752;28;20668;-72
2023/04/28 11:33:54;;;;;;;0.13;0.13;;;22.10;54.50;;;;;;5076237;28;20093;-73
2023/04/28 11:36:27;;;;;;;0.10;0.10;;;22.20;55.30;;;;;;5076306;28;20219;-72
2023/04/28 11:38:54;;;;;;;0.30;0.25;;;22.70;55.20;;;;;;5079315;28;20032;-73
2023/04/28 11:41:20;;;;;;;0.10;0.10;;;22.80;54.40;;;;;;5079812;28;20054;-74
2023/04/28 11:43:46;;;;;;;0.10;0.10;;;22.90;53.60;;;;;;5079833;28;20372;-72
2023/04/28 11:46:23;;;;;;;0.10;0.10;;;22.90;54.00;;;;;;5077693;28;20047;-72
2023/04/28 11:49:03;;;;;;;0.10;0.10;;;22.30;53.50;;;;;;5079465;28;20023;-74
2023/04/28 11:51:33;;;;;;;0.10;0.10;;;22.30;55.10;;;;;;5079623;28;20320;-72
2023/04/28 11:54:00;;;;;;;0.10;0.10;;;22.60;54.00;;;;;;5079518;28;20387;-72
2023/04/28 11:56:26;;;;;;;0.10;0.10;;;23.00;54.40;;;;;;5079445;28;20586;-72
2023/04/28 11:59:03;;;;;;;0.22;0.17;;;23.00;54.30;;;;;;5061239;28;20044;-72
2023/04/28 12:01:30;;;;;;;0.03;0.03;;;23.30;52.20;;;;;;5079321;28;20035;-72
2023/04/28 12:03:56;;;;;;;0.10;0.10;;;23.60;52.40;;;;;;5079120;28;20124;-72
2023/04/28 12:06:22;;;;;;;0.10;0.10;;;23.40;51.90;;;;;;5079384;28;20050;-72
2023/04/28 12:08:48;;;;;;;0.30;0.30;;;23.30;51.70;;;;;;5079441;28;20084;-72
2023/04/28 12:11:16;;;;;;;0.10;0.10;;;23.40;51.80;;;;;;5079257;28;20494;-71
2023/04/28 12:13:42;;;;;;;0.52;0.30;;;23.20;51.80;;;;;;5079449;28;20232;-76
2023/04/28 12:16:08;;;;;;;0.10;0.10;;;23.10;54.30;;;;;;5079071;28;20020;-73
2023/04/28 12:19:01;;;;;;;0.10;0.10;;;22.80;51.80;;;;;;5079005;28;20362;-77
2023/04/28 12:21:27;;;;;;;0.00;0.00;;;23.20;52.20;;;;;;5015736;28;20050;-72
2023/04/28 12:23:55;;;;;;;0.10;0.10;;;23.70;52.40;;;;;;5015530;28;20029;-72
2023/04/28 12:26:24;;;;;;;0.00;0.00;;;24.20;52.50;;;;;;5015734;28;20103;-72
2023/04/28 12:28:50;;;;;;;0.00;0.00;;;24.80;53.60;;;;;;5015612;28;20029;-72
2023/04/28 12:31:16;;;;;;;0.00;0.00;;;25.10;52.10;;;;;;5015670;28;20025;-72
2023/04/28 12:33:43;;;;;;;0.00;0.00;;;25.50;50.80;;;;;;5015711;28;20700;-72
2023/04/28 12:36:09;;;;;;;0.05;0.05;;;26.00;51.20;;;;;;5015315;28;20059;-72
2023/04/28 12:38:37;;;;;;;0.00;0.00;;;26.10;50.60;;;;;;5015362;28;20057;-74
2023/04/28 12:41:03;;;;;;;0.10;0.10;;;26.70;49.90;;;;;;5015275;28;20227;-72
2023/04/28 12:43:28;;;;;;;0.13;0.13;;;26.80;48.30;;;;;;5015473;28;20046;-72
2023/04/28 12:45:55;;;;;;;0.40;0.32;;;26.60;48.00;;;;;;5015110;28;20124;-72
2023/04/28 12:48:22;;;;;;;0.00;0.00;;;26.40;47.70;;;;;;5015355;28;20068;-73
2023/04/28 12:50:48;;;;;;;0.15;0.15;;;26.70;48.40;;;;;;5014363;28;20030;-73
2023/04/28 12:53:14;;;;;;;0.22;0.22;;;26.30;47.50;;;;;;5014985;28;20475;-72
2023/04/28 12:55:39;;;;;;;0.00;0.00;;;25.80;47.50;;;;;;5015210;28;20504;-77